Time;durP1;ratioP1;P1;durP2;ratioP2;P2;SDS_P1;SDS_P2;PMS_P1;PMS_P2;Temp;Humidity;BMP_temperature;BMP_pressure;BME280_temperature;BME280_humidity;BME280_pressure;Samples;Min_cycle;Max_cycle;Signal;HPM_P1;HPM_P2
2021/05/30 00:01:16;;;;;;;5.42;4.17;;;;;;;13.91;78.10;99694.25;1695430;83;21478;-67
2021/05/30 00:03:44;;;;;;;6.58;4.22;;;;;;;13.89;78.25;99695.70;1697342;83;21771;-69
2021/05/30 00:06:10;;;;;;;6.37;4.28;;;;;;;13.86;78.37;99692.05;1687164;83;21574;-68
2021/05/30 00:08:37;;;;;;;5.35;4.10;;;;;;;13.84;78.45;99686.08;1676530;83;21636;-67
2021/05/30 00:11:05;;;;;;;6.62;4.00;;;;;;;13.82;78.62;99685.41;1676552;83;20992;-67
2021/05/30 00:13:33;;;;;;;5.45;4.35;;;;;;;13.81;78.91;99687.73;1678076;83;21036;-68
2021/05/30 00:16:00;;;;;;;9.00;4.08;;;;;;;13.79;79.02;99687.04;1694660;83;21760;-74
2021/05/30 00:18:28;;;;;;;4.55;4.15;;;;;;;13.75;79.05;99689.69;1701050;83;21071;-67
2021/05/30 00:20:55;;;;;;;5.30;4.37;;;;;;;13.72;79.02;99690.84;1709021;83;21414;-68
2021/05/30 00:23:21;;;;;;;6.85;4.20;;;;;;;13.70;79.06;99690.17;1698430;83;21032;-67
2021/05/30 00:25:48;;;;;;;4.80;4.25;;;;;;;13.69;79.03;99688.48;1675658;83;21553;-67
2021/05/30 00:28:14;;;;;;;9.25;4.10;;;;;;;13.65;79.03;99683.17;1708657;83;21782;-67
2021/05/30 00:30:41;;;;;;;5.50;3.60;;;;;;;13.63;79.00;99683.83;1692229;82;21520;-67
2021/05/30 00:33:07;;;;;;;5.03;4.17;;;;;;;13.61;78.84;99692.95;1683467;84;21433;-67
2021/05/30 00:35:34;;;;;;;6.20;4.40;;;;;;;13.55;78.75;99687.77;1682304;83;21469;-67
2021/05/30 00:38:01;;;;;;;5.45;4.17;;;;;;;13.53;78.90;99688.92;1676081;83;21557;-67
2021/05/30 00:40:28;;;;;;;8.20;4.50;;;;;;;13.51;79.03;99694.84;1686611;83;21792;-67
2021/05/30 00:42:54;;;;;;;7.05;4.37;;;;;;;13.48;79.11;99701.80;1684889;83;21475;-67
2021/05/30 00:45:21;;;;;;;7.33;4.17;;;;;;;13.45;79.18;99693.67;1702986;83;21079;-67
2021/05/30 00:47:48;;;;;;;7.17;4.20;;;;;;;13.44;79.01;99703.95;1718535;83;21059;-68
2021/05/30 00:50:14;;;;;;;5.50;4.00;;;;;;;13.39;78.95;99708.38;1696252;83;21145;-68
2021/05/30 00:52:42;;;;;;;6.97;4.15;;;;;;;13.37;78.94;99703.73;1711209;83;21741;-67
2021/05/30 00:55:11;;;;;;;9.23;4.30;;;;;;;13.33;78.86;99702.39;1700828;83;21062;-68
2021/05/30 00:57:38;;;;;;;6.62;4.37;;;;;;;13.30;78.93;99707.16;1687528;83;21046;-68
2021/05/30 01:00:08;;;;;;;7.03;4.67;;;;;;;13.27;79.10;99704.33;1704386;83;20988;-68
2021/05/30 01:02:35;;;;;;;4.87;4.42;;;;;;;13.25;79.16;99702.33;1720598;83;20975;-68
2021/05/30 01:05:02;;;;;;;8.28;4.53;;;;;;;13.23;79.21;99699.51;1699027;83;21744;-67
2021/05/30 01:07:29;;;;;;;5.42;4.17;;;;;;;13.21;79.27;99698.80;1709263;83;21035;-67
2021/05/30 01:09:56;;;;;;;5.80;4.15;;;;;;;13.18;79.12;99704.73;1696872;83;21015;-68
2021/05/30 01:12:22;;;;;;;8.60;4.12;;;;;;;13.13;79.08;99700.90;1673261;83;21062;-67
2021/05/30 01:14:50;;;;;;;5.22;4.28;;;;;;;13.09;79.01;99708.31;1677049;83;21581;-68
2021/05/30 01:17:18;;;;;;;5.17;4.35;;;;;;;13.05;79.00;99709.61;1660295;83;21675;-67
2021/05/30 01:19:45;;;;;;;9.80;4.70;;;;;;;13.02;79.01;99715.20;1679565;83;20996;-67
2021/05/30 01:22:11;;;;;;;7.28;4.80;;;;;;;13.00;78.98;99713.20;1676561;85;21031;-67
2021/05/30 01:24:38;;;;;;;7.17;5.72;;;;;;;13.00;79.17;99707.91;1668281;84;21122;-67
2021/05/30 01:27:05;;;;;;;8.20;4.92;;;;;;;12.98;79.50;99704.58;1664369;84;21529;-69
2021/05/30 01:29:32;;;;;;;6.58;4.78;;;;;;;12.97;79.65;99703.41;1696412;83;21795;-68
2021/05/30 01:32:00;;;;;;;9.50;5.03;;;;;;;12.94;79.81;99697.93;1701280;83;21558;-67
2021/05/30 01:34:26;;;;;;;9.25;4.85;;;;;;;12.90;79.93;99697.39;1694758;83;21455;-67
2021/05/30 01:36:55;;;;;;;6.12;4.42;;;;;;;12.89;80.08;99702.34;1720602;83;21518;-67
2021/05/30 01:39:21;;;;;;;5.10;4.60;;;;;;;12.87;80.23;99696.37;1708456;83;21079;-67
2021/05/30 01:41:47;;;;;;;6.10;4.62;;;;;;;12.85;80.43;99695.70;1687567;83;21727;-68
2021/05/30 01:44:15;;;;;;;5.78;4.87;;;;;;;12.84;80.58;99698.52;1666089;83;20999;-68
2021/05/30 01:46:41;;;;;;;6.12;4.17;;;;;;;12.83;80.64;99700.80;1691502;83;21577;-67
2021/05/30 01:49:08;;;;;;;5.75;4.75;;;;;;;12.83;80.69;99699.47;1692134;83;21802;-67
2021/05/30 01:51:36;;;;;;;5.92;4.47;;;;;;;12.83;80.78;99700.80;1675280;83;21488;-67
2021/05/30 01:54:09;;;;;;;7.10;4.60;;;;;;;12.84;80.85;99703.81;1690513;83;21805;-68
2021/05/30 01:59:20;;;;;;;5.08;4.45;;;;;;;12.83;80.92;99697.65;1719493;83;21553;-67
2021/05/30 02:01:49;;;;;;;5.20;4.40;;;;;;;12.84;81.04;99701.16;1683934;83;20996;-67
2021/05/30 02:04:16;;;;;;;7.87;4.35;;;;;;;12.85;81.06;99701.00;1700612;83;21002;-67
2021/05/30 02:06:44;;;;;;;6.42;4.62;;;;;;;12.85;81.15;99701.00;1689293;83;21008;-67
2021/05/30 02:09:11;;;;;;;5.75;4.35;;;;;;;12.84;81.25;99703.31;1700402;83;21064;-67
2021/05/30 02:11:39;;;;;;;4.75;4.10;;;;;;;12.86;81.31;99703.16;1684966;83;21004;-67
2021/05/30 02:14:07;;;;;;;6.90;4.40;;;;;;;12.85;81.29;99706.80;1715435;83;21787;-67
2021/05/30 02:16:34;;;;;;;5.20;4.62;;;;;;;12.83;81.40;99706.92;1692577;83;20996;-67
2021/05/30 02:19:01;;;;;;;6.45;4.80;;;;;;;12.83;81.47;99704.77;1699790;83;21772;-68
2021/05/30 02:21:47;;;;;;;5.10;4.60;;;;;;;12.83;81.45;99713.55;1710610;83;21099;-67
2021/05/30 02:24:15;;;;;;;4.75;4.28;;;;;;;12.84;81.46;99716.57;1716050;82;21106;-67
2021/05/30 02:26:42;;;;;;;5.30;4.80;;;;;;;12.84;81.52;99723.69;1693781;83;21286;-73
2021/05/30 02:29:08;;;;;;;5.83;4.78;;;;;;;12.83;81.55;99723.32;1680628;83;21075;-67
2021/05/30 02:31:35;;;;;;;6.67;4.40;;;;;;;12.82;81.59;99723.81;1703511;83;21783;-67
2021/05/30 02:34:01;;;;;;;5.83;4.60;;;;;;;12.82;81.61;99725.63;1699617;83;21079;-68
2021/05/30 02:36:28;;;;;;;5.95;4.50;;;;;;;12.80;81.67;99724.47;1692028;84;21122;-68
2021/05/30 02:38:55;;;;;;;5.72;4.60;;;;;;;12.80;81.70;99727.61;1704314;83;20995;-67
2021/05/30 02:41:23;;;;;;;5.70;4.10;;;;;;;12.80;81.69;99727.61;1702088;83;21070;-68
2021/05/30 02:43:50;;;;;;;5.85;4.40;;;;;;;12.81;81.65;99726.13;1712860;83;21757;-68
2021/05/30 02:46:16;;;;;;;7.65;4.30;;;;;;;12.81;81.63;99725.30;1675023;83;21052;-67
2021/05/30 02:48:43;;;;;;;5.03;4.30;;;;;;;12.81;81.61;99727.45;1681005;83;20979;-67
2021/05/30 02:51:10;;;;;;;6.45;4.37;;;;;;;12.81;81.55;99725.30;1702903;83;21259;-68
2021/05/30 02:53:38;;;;;;;5.33;4.33;;;;;;;12.81;81.50;99734.08;1706110;83;21083;-68
2021/05/30 02:56:04;;;;;;;5.62;4.20;;;;;;;12.81;81.44;99729.27;1671873;83;22160;-67
2021/05/30 02:58:31;;;;;;;6.67;4.08;;;;;;;12.81;81.39;99734.08;1675961;83;21059;-67
2021/05/30 03:00:58;;;;;;;5.42;4.10;;;;;;;12.82;81.32;99732.26;1638908;84;21063;-67
2021/05/30 03:03:25;;;;;;;5.80;3.87;;;;;;;12.84;81.27;99739.59;1640654;87;21015;-68
2021/05/30 03:05:52;;;;;;;5.37;4.00;;;;;;;12.84;81.21;99732.47;1646681;85;21447;-68
2021/05/30 03:08:19;;;;;;;8.43;4.45;;;;;;;12.83;81.27;99728.62;1656988;84;21580;-67
2021/05/30 03:10:45;;;;;;;5.25;3.87;;;;;;;12.83;81.32;99723.32;1671319;84;21545;-67
2021/05/30 03:13:13;;;;;;;5.42;3.80;;;;;;;12.88;81.32;99717.09;1661600;85;20975;-68
2021/05/30 03:15:39;;;;;;;6.37;3.60;;;;;;;12.93;81.29;99719.27;1664399;86;21193;-67
2021/05/30 03:18:07;;;;;;;3.70;3.40;;;;;;;12.97;81.30;99717.50;1670417;84;21710;-67
2021/05/30 03:20:33;;;;;;;7.58;3.50;;;;;;;13.01;81.29;99720.66;1649038;84;21807;-67
2021/05/30 03:23:00;;;;;;;6.17;3.40;;;;;;;13.05;81.31;99722.04;1611614;89;21055;-68
2021/05/30 03:25:27;;;;;;;6.00;3.45;;;;;;;13.07;81.32;99722.71;1640210;85;21000;-68
2021/05/30 03:27:54;;;;;;;5.72;3.67;;;;;;;13.10;81.29;99721.90;1635592;86;21051;-68
2021/05/30 03:30:21;;;;;;;5.35;3.30;;;;;;;13.14;81.28;99717.14;1613605;86;21062;-68
2021/05/30 03:32:47;;;;;;;4.28;3.22;;;;;;;13.20;81.24;99715.21;1602262;88;22401;-67
2021/05/30 03:35:14;;;;;;;5.72;3.60;;;;;;;13.23;81.20;99717.58;1615008;88;21010;-67
2021/05/30 03:37:42;;;;;;;3.35;2.70;;;;;;;13.26;81.18;99729.69;1657754;85;21039;-67
2021/05/30 03:42:53;;;;;;;4.17;3.10;;;;;;;13.29;81.18;99725.39;1633887;85;21644;-67
2021/05/30 03:45:21;;;;;;;3.90;3.02;;;;;;;13.33;81.13;99726.77;1623153;87;22207;-67
2021/05/30 03:47:48;;;;;;;3.47;3.10;;;;;;;13.35;81.10;99722.95;1633281;86;21520;-67
2021/05/30 03:50:14;;;;;;;3.62;2.90;;;;;;;13.37;80.94;99720.98;1632434;85;21414;-67
2021/05/30 03:52:41;;;;;;;4.80;3.10;;;;;;;13.39;80.87;99722.14;1654676;86;21624;-67
2021/05/30 03:55:09;;;;;;;6.25;2.90;;;;;;;13.38;80.77;99722.64;1625874;85;21421;-68
2021/05/30 03:57:36;;;;;;;7.17;3.15;;;;;;;13.41;80.62;99718.83;1650080;86;22444;-68
2021/05/30 04:00:10;;;;;;;5.28;3.17;;;;;;;13.43;80.51;99716.88;1723862;82;21003;-68
2021/05/30 04:02:36;;;;;;;5.00;3.02;;;;;;;13.44;80.42;99720.70;1712709;82;20971;-67
2021/05/30 04:05:03;;;;;;;6.15;3.30;;;;;;;13.46;80.31;99714.73;1698522;82;21081;-68
2021/05/30 04:07:33;;;;;;;5.78;2.62;;;;;;;13.50;80.17;99721.88;1713946;82;21054;-68
2021/05/30 04:10:06;;;;;;;4.75;2.95;;;;;;;13.54;80.06;99713.13;1706414;82;21818;-68
2021/05/30 04:12:31;;;;;;;4.17;3.08;;;;;;;13.56;79.83;99721.27;1704853;82;20994;-68
2021/05/30 04:14:57;;;;;;;4.12;2.95;;;;;;;13.58;79.67;99724.58;1684506;83;21007;-68
2021/05/30 04:17:24;;;;;;;5.75;2.80;;;;;;;13.60;79.61;99732.38;1704685;82;21054;-68
2021/05/30 04:19:51;;;;;;;3.67;2.75;;;;;;;13.63;79.63;99731.59;1719624;82;21034;-67
2021/05/30 04:22:19;;;;;;;3.55;2.47;;;;;;;13.66;79.40;99731.27;1733910;82;21046;-67
2021/05/30 04:24:45;;;;;;;6.80;2.37;;;;;;;13.67;79.19;99729.45;1708728;82;21051;-67
2021/05/30 04:27:12;;;;;;;5.40;2.60;;;;;;;13.70;79.06;99737.09;1703688;82;21004;-68
2021/05/30 04:29:39;;;;;;;8.45;2.50;;;;;;;13.73;78.87;99740.27;1722948;82;21178;-67
2021/05/30 04:32:06;;;;;;;3.30;2.70;;;;;;;13.77;78.60;99739.95;1702205;82;20979;-67
2021/05/30 04:34:33;;;;;;;3.47;2.60;;;;;;;13.78;78.33;99746.92;1666288;84;21769;-67
2021/05/30 04:36:59;;;;;;;4.42;2.42;;;;;;;13.81;78.27;99754.59;1650440;85;21062;-67
2021/05/30 04:39:27;;;;;;;2.60;2.40;;;;;;;13.84;78.21;99744.98;1694623;83;21039;-67
2021/05/30 04:41:54;;;;;;;4.72;2.50;;;;;;;13.84;77.88;99743.64;1668069;84;21044;-67
2021/05/30 04:44:20;;;;;;;3.62;2.30;;;;;;;13.81;76.85;99743.97;1634686;85;21132;-68
2021/05/30 04:46:47;;;;;;;4.70;2.67;;;;;;;13.83;76.73;99741.98;1643855;85;21728;-67
2021/05/30 04:49:15;;;;;;;2.90;2.60;;;;;;;13.87;76.76;99744.65;1651189;85;20991;-67
2021/05/30 04:51:41;;;;;;;6.33;2.60;;;;;;;13.94;76.63;99749.67;1650643;86;21051;-67
2021/05/30 04:54:07;;;;;;;3.05;2.25;;;;;;;14.00;76.66;99753.03;1654315;85;21450;-68
2021/05/30 04:56:34;;;;;;;3.17;2.10;;;;;;;14.07;76.53;99755.36;1652169;85;21003;-68
2021/05/30 04:59:00;;;;;;;2.62;2.30;;;;;;;14.12;76.02;99761.54;1615326;85;21758;-68
2021/05/30 05:01:28;;;;;;;6.08;2.10;;;;;;;14.19;75.74;99763.41;1658254;85;21022;-68
2021/05/30 05:03:54;;;;;;;8.33;1.75;;;;;;;14.29;75.65;99766.77;1661694;85;20999;-68
2021/05/30 05:06:21;;;;;;;2.10;1.30;;;;;;;14.40;75.21;99774.10;1644710;85;21137;-68
2021/05/30 05:08:49;;;;;;;1.62;1.50;;;;;;;14.41;73.04;99770.45;1650075;86;20983;-68
2021/05/30 05:11:16;;;;;;;4.58;1.30;;;;;;;14.39;72.36;99773.27;1669581;85;21947;-68
2021/05/30 05:13:43;;;;;;;4.70;1.20;;;;;;;14.37;71.55;99769.92;1665142;85;21054;-67
2021/05/30 05:16:09;;;;;;;1.82;1.50;;;;;;;14.40;71.38;99763.48;1669175;85;21080;-68
2021/05/30 05:18:36;;;;;;;3.72;1.30;;;;;;;14.43;71.11;99763.98;1649197;85;21007;-68
2021/05/30 05:21:05;;;;;;;3.55;1.40;;;;;;;14.42;70.29;99745.55;1651367;85;21163;-67
2021/05/30 05:23:34;;;;;;;1.30;1.15;;;;;;;14.42;70.33;99753.52;1678168;85;21009;-67
2021/05/30 05:26:04;;;;;;;2.10;1.57;;;;;;;14.47;70.54;99751.22;1659800;85;21098;-69
2021/05/30 05:28:32;;;;;;;1.60;1.30;;;;;;;14.54;70.24;99744.27;1642668;85;21058;-67
2021/05/30 05:31:00;;;;;;;5.45;1.50;;;;;;;14.64;70.41;99747.61;1649056;85;21103;-67
2021/05/30 05:33:27;;;;;;;2.75;1.20;;;;;;;14.78;70.26;99752.80;1650738;87;20979;-67
2021/05/30 05:35:54;;;;;;;3.42;1.35;;;;;;;14.90;69.89;99759.46;1652829;85;22555;-67
2021/05/30 05:38:20;;;;;;;1.77;1.42;;;;;;;14.98;68.59;99749.34;1649723;85;21124;-67
2021/05/30 05:40:48;;;;;;;3.80;1.50;;;;;;;15.01;67.91;99757.80;1636170;85;20987;-67
2021/05/30 05:43:14;;;;;;;1.50;1.35;;;;;;;15.02;67.62;99755.47;1666125;85;21007;-67
2021/05/30 05:45:41;;;;;;;2.05;1.30;;;;;;;15.03;67.27;99767.77;1653577;85;21055;-67
2021/05/30 05:48:11;;;;;;;2.37;1.45;;;;;;;15.02;67.46;99767.44;1667267;85;21734;-67
2021/05/30 05:50:40;;;;;;;1.20;1.10;;;;;;;15.09;67.93;99768.45;1654858;83;20998;-67
2021/05/30 05:53:06;;;;;;;2.90;1.30;;;;;;;15.24;68.08;99779.75;1706770;83;20974;-68
2021/05/30 05:55:34;;;;;;;3.40;1.40;;;;;;;15.39;67.92;99775.44;1690176;82;21202;-69
2021/05/30 05:58:00;;;;;;;2.00;1.30;;;;;;;15.50;67.62;99776.92;1658258;84;21166;-69
2021/05/30 06:00:27;;;;;;;1.40;1.30;;;;;;;15.63;67.90;99771.46;1654814;83;21740;-69
2021/05/30 06:02:53;;;;;;;2.98;1.20;;;;;;;15.75;66.67;99771.93;1699984;83;21079;-68
2021/05/30 06:05:22;;;;;;;3.52;1.30;;;;;;;15.72;65.60;99766.92;1708402;83;21027;-68
2021/05/30 06:07:54;;;;;;;1.40;1.30;;;;;;;15.62;65.66;99768.94;1718868;82;21083;-68
2021/05/30 06:10:28;;;;;;;2.85;1.30;;;;;;;15.54;65.64;99774.23;1699580;83;21075;-69
2021/05/30 06:12:53;;;;;;;3.17;1.27;;;;;;;15.42;65.40;99770.59;1693568;83;21767;-69
2021/05/30 06:15:22;;;;;;;3.87;1.50;;;;;;;15.35;65.64;99774.95;1696642;83;21182;-68
2021/05/30 06:18:02;;;;;;;2.35;1.30;;;;;;;15.32;65.69;99775.77;1675432;84;21091;-70
2021/05/30 06:20:26;;;;;;;3.70;1.30;;;;;;;15.31;66.08;99771.44;1649855;84;21114;-69
2021/05/30 06:22:54;;;;;;;2.40;1.98;;;;;;;15.36;66.71;99769.95;1713373;83;21027;-69
2021/05/30 06:25:22;;;;;;;1.70;1.45;;;;;;;15.45;66.91;99773.45;1689326;82;22526;-69
2021/05/30 06:27:49;;;;;;;3.22;1.52;;;;;;;15.57;67.09;99781.91;1678520;83;21150;-69
2021/05/30 06:30:18;;;;;;;3.62;1.50;;;;;;;15.68;67.00;99781.59;1659263;83;21500;-70
2021/05/30 06:32:45;;;;;;;3.22;1.30;;;;;;;15.79;66.66;99783.89;1706456;83;21517;-69
2021/05/30 06:35:12;;;;;;;2.98;1.50;;;;;;;15.94;66.79;99784.03;1690408;83;21060;-69
2021/05/30 06:37:39;;;;;;;1.82;1.40;;;;;;;16.08;66.15;99785.15;1695483;83;21750;-68
2021/05/30 06:40:07;;;;;;;2.67;1.35;;;;;;;16.17;65.80;99780.13;1718553;83;20988;-68
2021/05/30 06:42:34;;;;;;;1.30;1.20;;;;;;;16.27;65.63;99768.76;1697193;83;21605;-68
2021/05/30 06:45:00;;;;;;;2.83;1.50;;;;;;;16.33;64.88;99775.24;1724896;83;21058;-68
2021/05/30 06:47:27;;;;;;;1.30;1.20;;;;;;;16.29;64.08;99788.06;1730687;83;20987;-67
2021/05/30 06:49:54;;;;;;;3.42;1.20;;;;;;;16.26;63.95;99789.25;1709677;83;21775;-68
2021/05/30 06:52:21;;;;;;;2.37;1.27;;;;;;;16.19;63.66;99794.09;1696442;83;21114;-67
2021/05/30 06:54:48;;;;;;;2.55;1.25;;;;;;;16.10;64.18;99785.80;1709442;83;21107;-68
2021/05/30 06:57:15;;;;;;;1.00;0.90;;;;;;;16.19;64.65;99785.60;1712012;83;21464;-67
2021/05/30 06:59:41;;;;;;;4.37;1.40;;;;;;;16.29;64.33;99792.89;1682592;82;21105;-68
2021/05/30 07:02:08;;;;;;;1.42;1.25;;;;;;;16.24;63.26;99785.93;1720332;82;21743;-68
2021/05/30 07:04:34;;;;;;;5.10;1.12;;;;;;;16.12;63.66;99788.65;1738482;82;20975;-71
2021/05/30 07:07:01;;;;;;;1.52;1.07;;;;;;;16.11;63.87;99784.80;1733319;82;21040;-71
2021/05/30 07:09:28;;;;;;;4.58;1.20;;;;;;;16.17;63.82;99783.62;1697710;82;21527;-69
2021/05/30 07:11:55;;;;;;;3.30;1.25;;;;;;;16.22;63.95;99774.63;1712387;83;21482;-68
2021/05/30 07:14:21;;;;;;;2.42;1.20;;;;;;;16.36;64.10;99780.22;1718213;83;21722;-70
2021/05/30 07:16:48;;;;;;;2.77;1.20;;;;;;;16.43;63.23;99786.02;1706745;83;20991;-73
2021/05/30 07:19:14;;;;;;;1.20;1.10;;;;;;;16.41;62.49;99785.37;1726056;83;20983;-71
2021/05/30 07:21:41;;;;;;;3.22;1.30;;;;;;;16.36;62.90;99793.04;1710194;83;21034;-69
2021/05/30 07:24:07;;;;;;;5.40;1.45;;;;;;;16.38;62.81;99789.69;1717857;83;21034;-69
2021/05/30 07:26:37;;;;;;;2.80;1.20;;;;;;;16.46;63.05;99792.33;1706956;83;22345;-68
2021/05/30 07:29:02;;;;;;;4.00;1.20;;;;;;;16.47;62.67;99804.64;1715417;83;21027;-69
2021/05/30 07:31:30;;;;;;;2.83;1.25;;;;;;;16.41;62.67;99806.69;1722441;83;21048;-69
2021/05/30 07:33:56;;;;;;;1.42;1.27;;;;;;;16.47;63.00;99802.48;1705252;83;21474;-70
2021/05/30 07:36:24;;;;;;;3.22;1.30;;;;;;;16.51;62.46;99809.15;1706996;83;21509;-72
2021/05/30 07:38:53;;;;;;;4.40;1.40;;;;;;;16.52;62.83;99813.47;1702987;83;21030;-70
2021/05/30 07:41:19;;;;;;;2.95;1.17;;;;;;;16.59;62.64;99810.41;1693262;83;21641;-69
2021/05/30 07:43:46;;;;;;;1.85;1.30;;;;;;;16.68;62.67;99816.55;1694182;83;21089;-72
2021/05/30 07:46:13;;;;;;;2.60;1.42;;;;;;;16.70;61.58;99815.92;1662370;83;21051;-70
2021/05/30 07:48:39;;;;;;;3.17;1.12;;;;;;;16.72;62.10;99822.73;1700370;82;21063;-73
2021/05/30 07:51:06;;;;;;;5.03;1.80;;;;;;;16.78;61.68;99824.68;1703051;82;21819;-69
2021/05/30 07:53:33;;;;;;;1.40;1.30;;;;;;;16.83;62.07;99830.34;1699678;83;21119;-68
2021/05/30 07:56:00;;;;;;;2.35;1.60;;;;;;;16.91;62.71;99825.46;1681562;84;21051;-69
2021/05/30 07:58:27;;;;;;;1.35;1.25;;;;;;;17.02;62.88;99827.72;1682625;82;21131;-69
2021/05/30 08:00:53;;;;;;;1.47;1.37;;;;;;;17.08;61.84;99832.36;1696185;82;21050;-69
2021/05/30 08:03:21;;;;;;;1.50;1.30;;;;;;;17.09;61.47;99834.02;1701897;83;21735;-69
2021/05/30 08:05:49;;;;;;;2.25;1.40;;;;;;;17.09;61.14;99833.20;1691973;82;21115;-70
2021/05/30 08:08:17;;;;;;;2.33;1.30;;;;;;;17.01;60.75;99829.23;1685110;83;20972;-73
2021/05/30 08:10:44;;;;;;;3.65;1.45;;;;;;;17.06;61.27;99836.19;1684914;82;21166;-69
2021/05/30 08:13:11;;;;;;;1.67;1.22;;;;;;;17.11;61.09;99839.17;1684857;82;21082;-70
2021/05/30 08:15:37;;;;;;;1.62;1.40;;;;;;;17.20;61.83;99841.29;1697135;82;22193;-69
2021/05/30 08:18:05;;;;;;;2.65;1.47;;;;;;;17.31;62.23;99835.03;1695925;82;21003;-69
2021/05/30 08:20:32;;;;;;;1.70;1.30;;;;;;;17.43;62.20;99828.75;1680583;84;21019;-71
2021/05/30 08:22:59;;;;;;;1.30;1.20;;;;;;;17.55;61.62;99834.49;1692861;83;21102;-75
2021/05/30 08:25:26;;;;;;;2.15;1.27;;;;;;;17.66;61.22;99838.06;1688828;83;21031;-71
2021/05/30 08:27:53;;;;;;;2.30;1.20;;;;;;;17.73;61.08;99845.21;1690996;84;21782;-70
2021/05/30 08:30:20;;;;;;;4.50;1.25;;;;;;;17.85;60.66;99846.11;1706210;82;21654;-70
2021/05/30 08:32:47;;;;;;;1.20;1.10;;;;;;;17.86;58.10;99850.47;1660001;85;21094;-70
2021/05/30 08:35:14;;;;;;;1.10;1.00;;;;;;;17.62;57.34;99844.28;1709552;83;21066;-70
2021/05/30 08:37:44;;;;;;;1.92;1.15;;;;;;;17.49;57.99;99846.73;1701328;82;21076;-69
2021/05/30 08:40:13;;;;;;;1.42;1.10;;;;;;;17.57;58.27;99840.52;1700445;84;22273;-69
2021/05/30 08:42:41;;;;;;;1.80;0.93;;;;;;;17.70;58.49;99838.08;1706081;82;21086;-70
2021/05/30 08:45:09;;;;;;;1.25;1.12;;;;;;;17.80;58.58;99847.17;1714936;82;20979;-69
2021/05/30 08:47:36;;;;;;;1.40;1.00;;;;;;;17.96;58.35;99843.84;1712014;83;20990;-69
2021/05/30 08:50:04;;;;;;;1.37;0.90;;;;;;;18.22;59.07;99843.89;1674764;84;21568;-69
2021/05/30 08:52:32;;;;;;;1.65;0.90;;;;;;;18.47;57.86;99844.45;1675290;84;21741;-67
2021/05/30 08:54:58;;;;;;;3.02;1.22;;;;;;;18.47;57.16;99847.95;1688723;83;21004;-68
2021/05/30 08:57:25;;;;;;;4.80;1.00;;;;;;;18.44;57.13;99843.50;1668756;85;20983;-69
2021/05/30 08:59:54;;;;;;;1.07;0.95;;;;;;;18.41;57.08;99850.53;1644468;85;21589;-67
2021/05/30 09:02:21;;;;;;;2.02;1.20;;;;;;;18.37;56.72;99861.28;1690054;84;21062;-67
2021/05/30 09:04:57;;;;;;;2.40;1.27;;;;;;;18.38;56.20;99862.44;1688285;83;21569;-67
2021/05/30 09:07:44;;;;;;;;;;;;;;;18.37;56.58;99852.75;1702533;83;21026;-68
2021/05/30 09:10:13;;;;;;;1.72;1.12;;;;;;;18.56;57.28;99858.05;1672807;85;20271;-67
2021/05/30 09:12:41;;;;;;;2.62;0.90;;;;;;;18.64;56.43;99857.13;1672843;85;21082;-67
2021/05/30 09:15:27;;;;;;;1.85;1.00;;;;;;;18.57;56.16;99865.05;1699091;83;21003;-71
2021/05/30 09:18:15;;;;;;;1.20;1.10;;;;;;;18.48;56.09;99863.49;1722609;81;21799;-70
2021/05/30 09:21:01;;;;;;;2.25;1.60;;;;;;;18.37;56.96;99869.31;1719528;82;21121;-72
2021/05/30 09:23:45;;;;;;;3.52;1.27;;;;;;;18.31;57.67;99869.52;1690730;83;21098;-70
2021/05/30 09:26:22;;;;;;;;;;;;;;;18.30;57.41;99874.05;1701786;83;21039;-72
2021/05/30 09:29:12;;;;;;;1.40;1.17;;;;;;;18.36;57.87;99864.98;1700072;83;21275;-70
2021/05/30 09:31:58;;;;;;;3.05;1.35;;;;;;;18.46;57.99;99866.35;1701541;83;21079;-69
2021/05/30 09:34:36;;;;;;;4.28;1.20;;;;;;;18.60;57.45;99871.36;1710504;82;21756;-79
2021/05/30 09:37:05;;;;;;;3.05;1.25;;;;;;;18.64;56.21;99872.67;1697126;82;21051;-72
2021/05/30 09:39:43;;;;;;;4.25;1.40;;;;;;;18.52;56.79;99865.59;1697401;82;21572;-72
2021/05/30 09:42:27;;;;;;;1.42;1.20;;;;;;;18.50;56.91;99880.17;1700303;82;21485;-72
2021/05/30 09:45:09;;;;;;;1.55;1.20;;;;;;;18.38;56.51;99880.33;1697073;82;21781;-71
2021/05/30 09:47:46;;;;;;;1.47;1.12;;;;;;;18.24;56.75;99873.46;1696110;82;21031;-71
2021/05/30 09:50:18;;;;;;;2.70;1.30;;;;;;;18.18;57.14;99868.83;1694999;82;21032;-72
2021/05/30 09:52:52;;;;;;;1.90;1.20;;;;;;;18.26;56.58;99874.09;1675286;84;21150;-71
2021/05/30 09:55:26;;;;;;;2.70;1.25;;;;;;;18.28;56.52;99885.44;1655782;84;21116;-74
2021/05/30 10:00:43;;;;;;;2.15;1.20;;;;;;;18.45;56.87;99880.74;1682227;83;21125;-71
2021/05/30 10:03:10;;;;;;;2.02;1.20;;;;;;;18.71;56.29;99876.77;1688083;82;21508;-75
2021/05/30 10:05:37;;;;;;;2.37;1.10;;;;;;;18.86;55.92;99873.07;1706198;82;21242;-74
2021/05/30 10:08:05;;;;;;;3.35;1.12;;;;;;;19.02;55.39;99877.89;1674625;83;21086;-76
2021/05/30 10:10:32;;;;;;;1.95;1.20;;;;;;;19.16;55.30;99871.66;1651793;83;21878;-74
2021/05/30 10:13:02;;;;;;;1.12;1.00;;;;;;;19.40;55.53;99868.62;1684637;84;21063;-74
2021/05/30 10:15:28;;;;;;;2.35;0.90;;;;;;;19.73;54.77;99872.97;1655583;84;20974;-76
2021/05/30 10:18:00;;;;;;;2.17;1.05;;;;;;;19.98;54.79;99865.34;1681084;83;21083;-76
2021/05/30 10:20:27;;;;;;;1.35;1.00;;;;;;;20.18;54.07;99870.02;1698064;83;21004;-78
2021/05/30 10:22:56;;;;;;;1.20;1.00;;;;;;;20.35;53.25;99871.34;1704251;82;21337;-80
2021/05/30 10:25:29;;;;;;;1.82;1.07;;;;;;;20.47;52.95;99866.30;1693563;83;21115;-77
2021/05/30 10:28:20;;;;;;;1.07;0.90;;;;;;;20.43;51.59;99864.51;1678131;83;21130;-80
2021/05/30 10:30:49;;;;;;;2.70;1.10;;;;;;;20.40;51.71;99867.56;1676812;83;21104;-74
2021/05/30 10:33:24;;;;;;;1.72;1.00;;;;;;;20.42;52.72;99868.70;1675412;83;21505;-76
2021/05/30 10:35:55;;;;;;;1.42;1.15;;;;;;;20.47;52.78;99864.95;1677752;83;21863;-75
2021/05/30 10:38:42;;;;;;;3.98;1.10;;;;;;;20.55;52.13;99868.28;1633733;85;21585;-76
2021/05/30 10:41:17;;;;;;;2.37;1.20;;;;;;;20.64;51.97;99869.45;1641533;87;21064;-74
2021/05/30 10:43:45;;;;;;;3.17;1.10;;;;;;;20.60;52.15;99876.27;1632825;85;21048;-77
2021/05/30 10:46:12;;;;;;;2.50;1.00;;;;;;;20.52;51.66;99874.05;1646809;85;21565;-72
2021/05/30 10:48:41;;;;;;;2.50;1.10;;;;;;;20.49;52.66;99876.31;1693201;82;21669;-73
2021/05/30 10:51:15;;;;;;;2.02;1.00;;;;;;;20.45;51.92;99885.77;1683683;83;20987;-72
2021/05/30 10:53:47;;;;;;;1.10;0.95;;;;;;;20.44;52.23;99885.45;1698979;82;21078;-73
2021/05/30 10:56:26;;;;;;;1.65;1.10;;;;;;;20.58;53.13;99888.54;1688493;82;21098;-72
2021/05/30 10:59:15;;;;;;;1.42;0.95;;;;;;;20.81;51.76;99874.80;1688913;82;21035;-73
2021/05/30 11:01:46;;;;;;;1.62;1.10;;;;;;;20.78;51.46;99889.46;1686649;82;22216;-75
2021/05/30 11:04:29;;;;;;;1.62;1.10;;;;;;;20.65;51.49;99888.55;1693318;83;21061;-75
2021/05/30 11:07:27;;;;;;;1.80;1.05;;;;;;;20.69;51.28;99893.85;1711449;82;21101;-76
2021/05/30 11:10:01;;;;;;;1.20;1.05;;;;;;;20.84;52.03;99895.38;1680476;83;21577;-75
2021/05/30 11:12:37;;;;;;;1.67;1.00;;;;;;;20.85;50.76;99894.87;1709779;82;21477;-75
2021/05/30 11:15:19;;;;;;;3.22;1.17;;;;;;;20.91;51.43;99895.39;1676942;83;21703;-76
2021/05/30 11:17:54;;;;;;;1.37;0.95;;;;;;;20.94;50.51;99893.67;1689108;83;20968;-74
2021/05/30 11:20:39;;;;;;;1.30;0.93;;;;;;;21.01;50.55;99894.50;1695569;83;21043;-75
2021/05/30 11:23:12;;;;;;;1.98;0.90;;;;;;;20.92;50.12;99890.84;1697022;82;21762;-75
2021/05/30 11:25:48;;;;;;;4.03;1.10;;;;;;;20.90;50.88;99888.88;1674116;83;21098;-75
2021/05/30 11:28:25;;;;;;;3.40;0.90;;;;;;;20.87;50.75;99890.12;1704167;82;21785;-77
2021/05/30 11:31:07;;;;;;;1.02;0.93;;;;;;;20.90;51.69;99888.88;1682244;84;21064;-74
2021/05/30 11:33:41;;;;;;;1.27;0.90;;;;;;;21.08;51.64;99885.95;1696024;83;21055;-82
2021/05/30 11:36:17;;;;;;;2.80;1.00;;;;;;;21.22;50.18;99884.13;1703298;83;21022;-73
2021/05/30 11:38:53;;;;;;;1.42;0.90;;;;;;;21.28;49.52;99879.84;1687860;83;21046;-73
2021/05/30 11:41:32;;;;;;;1.35;0.80;;;;;;;21.27;49.97;99879.02;1699313;83;21700;-72
2021/05/30 11:44:18;;;;;;;0.90;0.80;;;;;;;21.31;49.59;99881.59;1640903;86;21002;-71
2021/05/30 11:46:59;;;;;;;3.27;0.90;;;;;;;21.33;49.59;99884.11;1634965;87;21011;-72
2021/05/30 11:49:39;;;;;;;2.40;1.00;;;;;;;21.43;49.67;99889.91;1683834;83;21003;-72
2021/05/30 11:52:12;;;;;;;0.98;0.90;;;;;;;21.46;48.50;99892.70;1696772;84;21007;-71